Arthur, Nebraska
Current Conditions -  °F | °C
As of 4:35 AM on Tuesday 21 Oct 2014 (Local Time) from KOGA Reporting Station
Clear Clear  
Wind Chill: 47°   Ceiling: Unl
Heat Index: 47°   Visibility: 10mi
Dew Point: 40°   Wind: 3mph
Humidity: 75%   Direction: 190°S
Pressure: 30.02"   Gusts: NA
Location:  41.57°N, 101.69°W
Report Text: KOGA 211035Z AUTO 19003KT 10SM CLR 08/04 A3002 RMK AO2 T00830042
Loading
Personal Weather Stations






























Interactive Weather Map
Tropical Storm Tracking
New forecast layout! Learn more

10-Day Weather Forecast

Advertisements
Track Severe Weather on mobile